Time;durP1;ratioP1;P1;durP2;ratioP2;P2;SDS_P1;SDS_P2;PMS_P1;PMS_P2;Temp;Humidity;BMP_temperature;BMP_pressure;BME280_temperature;BME280_humidity;BME280_pressure;Samples;Min_cycle;Max_cycle;Signal;HPM_P1;HPM_P2
2022/10/14 00:00:51;;;;;;;;;;;;;;;;;;5119678;27;20027;-53
2022/10/14 00:03:17;;;;;;;;;;;;;;;;;;5133261;27;19907;-52
2022/10/14 00:05:43;;;;;;;;;;;;;;;;;;5133144;27;19949;-51
2022/10/14 00:08:09;;;;;;;;;;;;;;;;;;5131998;27;20368;-56
2022/10/14 00:10:35;;;;;;;;;;;;;;;;;;5116832;27;19916;-51
2022/10/14 00:13:01;;;;;;;;;;;;;;;;;;5113042;28;19908;-54
2022/10/14 00:15:27;;;;;;;;;;;;;;;;;;5129594;27;19998;-55
2022/10/14 00:17:53;;;;;;;;;;;;;;;;;;5122481;27;19915;-54
2022/10/14 00:20:18;;;;;;;;;;;;;;;;;;5125639;27;19916;-51
2022/10/14 00:22:44;;;;;;;;;;;;;;;;;;5122759;27;20324;-53
2022/10/14 00:25:10;;;;;;;;;;;;;;;;;;5126912;27;19915;-56
2022/10/14 00:27:36;;;;;;;;;;;;;;;;;;5124407;27;19918;-50
2022/10/14 00:30:02;;;;;;;;;;;;;;;;;;5133159;27;19915;-53
2022/10/14 00:32:28;;;;;;;;;;;;;;;;;;5132774;27;19975;-49
2022/10/14 00:34:54;;;;;;;;;;;;;;;;;;5133693;27;20287;-54
2022/10/14 00:37:20;;;;;;;;;;;;;;;;;;5132156;27;19918;-51
2022/10/14 00:39:46;;;;;;;;;;;;;;;;;;5129253;27;19914;-52
2022/10/14 00:42:12;;;;;;;;;;;;;;;;;;5120682;27;19918;-56
2022/10/14 00:44:38;;;;;;;;;;;;;;;;;;5097719;27;20002;-52
2022/10/14 00:47:03;;;;;;;;;;;;;;;;;;5132596;27;19912;-51
2022/10/14 00:49:30;;;;;;;;;;;;;;;;;;5130471;27;20002;-49
2022/10/14 00:51:56;;;;;;;;;;;;;;;;;;5114010;28;19995;-55
2022/10/14 00:54:21;;;;;;;;;;;;;;;;;;5112061;28;19915;-54
2022/10/14 00:56:47;;;;;;;;;;;;;;;;;;5112594;28;20036;-51
2022/10/14 00:59:13;;;;;;;;;;;;;;;;;;5125662;27;19959;-52
2022/10/14 01:01:39;;;;;;;;;;;;;;;;;;5132844;27;20364;-55
2022/10/14 01:04:05;;;;;;;;;;;;;;;;;;5132667;27;19960;-54
2022/10/14 01:06:31;;;;;;;;;;;;;;;;;;5131660;28;19903;-51
2022/10/14 01:08:57;;;;;;;;;;;;;;;;;;5133005;28;20011;-54
2022/10/14 01:11:23;;;;;;;;;;;;;;;;;;5132006;28;20431;-54
2022/10/14 01:13:48;;;;;;;;;;;;;;;;;;5132841;28;19964;-52
2022/10/14 01:16:14;;;;;;;;;;;;;;;;;;5126171;27;20020;-55
2022/10/14 01:18:40;;;;;;;;;;;;;;;;;;5125427;28;19920;-54
2022/10/14 01:21:06;;;;;;;;;;;;;;;;;;5121620;28;19931;-55
2022/10/14 01:23:32;;;;;;;;;;;;;;;;;;5133354;27;20022;-54
2022/10/14 01:25:58;;;;;;;;;;;;;;;;;;5127873;28;19912;-52
2022/10/14 01:28:24;;;;;;;;;;;;;;;;;;5115873;28;20274;-53
2022/10/14 01:30:50;;;;;;;;;;;;;;;;;;5132471;28;20056;-51
2022/10/14 01:33:16;;;;;;;;;;;;;;;;;;5126544;27;19912;-50
2022/10/14 01:35:41;;;;;;;;;;;;;;;;;;5132356;28;19918;-53
2022/10/14 01:38:07;;;;;;;;;;;;;;;;;;5114531;28;19908;-54
2022/10/14 01:40:33;;;;;;;;;;;;;;;;;;5131146;27;19918;-51
2022/10/14 01:42:59;;;;;;;;;;;;;;;;;;5135976;27;20360;-54
2022/10/14 01:45:25;;;;;;;;;;;;;;;;;;5134253;27;19961;-51
2022/10/14 01:47:51;;;;;;;;;;;;;;;;;;5115511;27;20007;-53
2022/10/14 01:50:17;;;;;;;;;;;;;;;;;;5129251;27;19919;-55
2022/10/14 01:52:43;;;;;;;;;;;;;;;;;;5118467;27;19953;-54
2022/10/14 01:55:09;;;;;;;;;;;;;;;;;;5115845;28;19908;-56
2022/10/14 01:57:35;;;;;;;;;;;;;;;;;;5129842;27;20372;-55
2022/10/14 02:00:01;;;;;;;;;;;;;;;;;;5126649;27;19907;-55
2022/10/14 02:02:27;;;;;;;;;;;;;;;;;;5135261;27;19911;-54
2022/10/14 02:04:53;;;;;;;;;;;;;;;;;;5135713;27;19920;-54
2022/10/14 02:07:19;;;;;;;;;;;;;;;;;;5135175;27;19915;-55
2022/10/14 02:09:44;;;;;;;;;;;;;;;;;;5131430;27;19971;-52
2022/10/14 02:12:10;;;;;;;;;;;;;;;;;;5116982;27;19912;-56
2022/10/14 02:14:36;;;;;;;;;;;;;;;;;;5125265;27;19919;-55
2022/10/14 02:17:02;;;;;;;;;;;;;;;;;;5132171;27;19952;-54
2022/10/14 02:19:28;;;;;;;;;;;;;;;;;;5135308;27;19908;-51
2022/10/14 02:21:54;;;;;;;;;;;;;;;;;;5121614;27;19915;-52
2022/10/14 02:24:20;;;;;;;;;;;;;;;;;;5133580;27;20375;-52
2022/10/14 02:26:46;;;;;;;;;;;;;;;;;;5126250;27;19957;-53
2022/10/14 02:29:12;;;;;;;;;;;;;;;;;;5135422;27;19915;-56
2022/10/14 02:31:37;;;;;;;;;;;;;;;;;;5135100;27;19951;-53
2022/10/14 02:34:03;;;;;;;;;;;;;;;;;;5135660;27;19915;-54
2022/10/14 02:36:29;;;;;;;;;;;;;;;;;;5121072;27;20031;-56
2022/10/14 02:38:55;;;;;;;;;;;;;;;;;;5135950;27;19953;-52
2022/10/14 02:41:21;;;;;;;;;;;;;;;;;;5134236;27;19908;-54
2022/10/14 02:43:47;;;;;;;;;;;;;;;;;;5131996;27;19917;-55
2022/10/14 02:46:13;;;;;;;;;;;;;;;;;;5121027;27;19961;-56
2022/10/14 02:48:39;;;;;;;;;;;;;;;;;;5115064;28;19923;-55
2022/10/14 02:51:04;;;;;;;;;;;;;;;;;;5120176;27;19998;-54
2022/10/14 02:53:30;;;;;;;;;;;;;;;;;;5134281;27;19957;-54
2022/10/14 02:55:56;;;;;;;;;;;;;;;;;;5123397;27;20402;-55
2022/10/14 02:58:22;;;;;;;;;;;;;;;;;;5134767;27;19992;-54
2022/10/14 03:00:48;;;;;;;;;;;;;;;;;;5128866;27;20430;-54
2022/10/14 03:03:14;;;;;;;;;;;;;;;;;;5133910;27;19918;-57
2022/10/14 03:05:40;;;;;;;;;;;;;;;;;;5133806;27;19927;-54
2022/10/14 03:08:06;;;;;;;;;;;;;;;;;;5135280;27;19938;-54
2022/10/14 03:10:31;;;;;;;;;;;;;;;;;;5126517;27;19924;-51
2022/10/14 03:12:57;;;;;;;;;;;;;;;;;;5135324;27;20313;-54
2022/10/14 03:15:23;;;;;;;;;;;;;;;;;;5133276;27;19912;-52
2022/10/14 03:17:49;;;;;;;;;;;;;;;;;;5130435;27;20352;-53
2022/10/14 03:20:15;;;;;;;;;;;;;;;;;;5122820;27;19914;-51
2022/10/14 03:22:41;;;;;;;;;;;;;;;;;;5127762;27;19912;-54
2022/10/14 03:25:07;;;;;;;;;;;;;;;;;;5099541;28;19915;-54
2022/10/14 03:27:33;;;;;;;;;;;;;;;;;;5114535;27;19908;-53
2022/10/14 03:29:58;;;;;;;;;;;;;;;;;;5134314;27;20051;-55
2022/10/14 03:32:24;;;;;;;;;;;;;;;;;;5133213;27;19922;-52
2022/10/14 03:34:50;;;;;;;;;;;;;;;;;;5129479;27;19922;-52
2022/10/14 03:37:16;;;;;;;;;;;;;;;;;;5130340;27;19996;-52
2022/10/14 03:39:42;;;;;;;;;;;;;;;;;;5131359;27;20252;-51
2022/10/14 03:42:08;;;;;;;;;;;;;;;;;;5123734;27;19909;-54
2022/10/14 03:44:34;;;;;;;;;;;;;;;;;;5133963;27;19960;-55
2022/10/14 03:47:00;;;;;;;;;;;;;;;;;;5134176;27;19915;-53
2022/10/14 03:49:25;;;;;;;;;;;;;;;;;;5127096;27;19972;-49
2022/10/14 03:51:51;;;;;;;;;;;;;;;;;;5124350;27;19955;-51
2022/10/14 03:54:17;;;;;;;;;;;;;;;;;;5126616;27;19914;-51
2022/10/14 03:56:43;;;;;;;;;;;;;;;;;;5133773;27;19908;-53
2022/10/14 03:59:09;;;;;;;;;;;;;;;;;;5120527;27;19914;-57
2022/10/14 04:01:35;;;;;;;;;;;;;;;;;;5114471;27;19976;-53
2022/10/14 04:04:01;;;;;;;;;;;;;;;;;;5131088;27;19908;-49
2022/10/14 04:06:27;;;;;;;;;;;;;;;;;;5103635;27;19911;-50
2022/10/14 04:08:52;;;;;;;;;;;;;;;;;;5133179;27;20022;-51
2022/10/14 04:11:18;;;;;;;;;;;;;;;;;;5132754;27;19908;-50
2022/10/14 04:13:44;;;;;;;;;;;;;;;;;;5133709;27;19908;-54
2022/10/14 04:16:10;;;;;;;;;;;;;;;;;;5133098;27;20421;-56
2022/10/14 04:18:36;;;;;;;;;;;;;;;;;;5132918;27;19915;-52
2022/10/14 04:21:02;;;;;;;;;;;;;;;;;;5123734;27;19983;-53
2022/10/14 04:23:28;;;;;;;;;;;;;;;;;;5125937;27;19917;-55
2022/10/14 04:25:54;;;;;;;;;;;;;;;;;;5133376;27;19914;-53
2022/10/14 04:28:20;;;;;;;;;;;;;;;;;;5133016;27;20407;-54
2022/10/14 04:30:46;;;;;;;;;;;;;;;;;;5132807;27;19916;-54
2022/10/14 04:33:12;;;;;;;;;;;;;;;;;;5123451;27;20322;-57
2022/10/14 04:35:38;;;;;;;;;;;;;;;;;;5114609;27;19943;-51
2022/10/14 04:38:04;;;;;;;;;;;;;;;;;;5133621;27;20423;-50
2022/10/14 04:40:29;;;;;;;;;;;;;;;;;;5124948;27;19915;-52
2022/10/14 04:42:55;;;;;;;;;;;;;;;;;;5129364;27;20306;-51
2022/10/14 04:45:21;;;;;;;;;;;;;;;;;;5113829;27;19957;-55
2022/10/14 04:47:47;;;;;;;;;;;;;;;;;;5114818;28;19915;-53
2022/10/14 04:50:13;;;;;;;;;;;;;;;;;;5131944;27;19954;-56
2022/10/14 04:52:39;;;;;;;;;;;;;;;;;;5117313;28;19912;-54
2022/10/14 04:55:05;;;;;;;;;;;;;;;;;;5124165;27;19919;-54
2022/10/14 04:57:30;;;;;;;;;;;;;;;;;;5125268;27;20548;-52
2022/10/14 04:59:56;;;;;;;;;;;;;;;;;;5132707;27;19957;-53
2022/10/14 05:02:22;;;;;;;;;;;;;;;;;;5129197;27;19919;-54
2022/10/14 05:04:48;;;;;;;;;;;;;;;;;;5132372;27;19919;-54
2022/10/14 05:07:14;;;;;;;;;;;;;;;;;;5132003;28;20017;-53
2022/10/14 05:09:40;;;;;;;;;;;;;;;;;;5124063;28;19943;-54
2022/10/14 05:12:06;;;;;;;;;;;;;;;;;;5124189;27;19942;-54
2022/10/14 05:14:32;;;;;;;;;;;;;;;;;;5128975;27;19907;-53
2022/10/14 05:16:58;;;;;;;;;;;;;;;;;;5126461;27;20383;-50
2022/10/14 05:19:23;;;;;;;;;;;;;;;;;;5136399;27;20040;-54
2022/10/14 05:21:49;;;;;;;;;;;;;;;;;;5135409;27;20383;-54
2022/10/14 05:24:15;;;;;;;;;;;;;;;;;;5135151;27;19907;-55
2022/10/14 05:26:41;;;;;;;;;;;;;;;;;;5136448;27;19916;-53
2022/10/14 05:29:07;;;;;;;;;;;;;;;;;;5134448;27;19919;-55
2022/10/14 05:31:33;;;;;;;;;;;;;;;;;;5128784;27;19982;-54
2022/10/14 05:33:59;;;;;;;;;;;;;;;;;;5126383;27;19919;-53
2022/10/14 05:36:24;;;;;;;;;;;;;;;;;;5135623;27;20625;-54
2022/10/14 05:38:54;;;;;;;;;;;;;;;;;;5137002;27;19911;-53
2022/10/14 05:41:20;;;;;;;;;;;;;;;;;;5131842;27;19938;-54
2022/10/14 05:43:46;;;;;;;;;;;;;;;;;;5136466;27;20398;-54
2022/10/14 05:46:12;;;;;;;;;;;;;;;;;;5117351;27;19916;-57
2022/10/14 05:48:37;;;;;;;;;;;;;;;;;;5131606;27;19911;-53
2022/10/14 05:51:03;;;;;;;;;;;;;;;;;;5129600;27;20335;-52
2022/10/14 05:53:31;;;;;;;;;;;;;;;;;;5115394;28;19968;-57
2022/10/14 05:55:57;;;;;;;;;;;;;;;;;;5132123;27;19908;-49
2022/10/14 05:58:23;;;;;;;;;;;;;;;;;;5135775;27;19908;-53
2022/10/14 06:00:48;;;;;;;;;;;;;;;;;;5136149;27;20367;-54
2022/10/14 06:03:14;;;;;;;;;;;;;;;;;;5114443;27;19952;-53
2022/10/14 06:05:40;;;;;;;;;;;;;;;;;;5132904;27;19930;-53
2022/10/14 06:08:06;;;;;;;;;;;;;;;;;;5131945;27;20356;-50
2022/10/14 06:10:32;;;;;;;;;;;;;;;;;;5132122;27;19916;-52
2022/10/14 06:12:58;;;;;;;;;;;;;;;;;;5137476;27;20450;-55
2022/10/14 06:15:24;;;;;;;;;;;;;;;;;;5125527;27;19915;-51
2022/10/14 06:17:50;;;;;;;;;;;;;;;;;;5130151;27;19911;-53
2022/10/14 06:20:15;;;;;;;;;;;;;;;;;;5131908;27;19978;-55
2022/10/14 06:22:41;;;;;;;;;;;;;;;;;;5130466;27;19912;-52
2022/10/14 06:25:07;;;;;;;;;;;;;;;;;;5123432;27;20348;-54
2022/10/14 06:27:33;;;;;;;;;;;;;;;;;;5127425;27;20371;-54
2022/10/14 06:29:59;;;;;;;;;;;;;;;;;;5132635;27;19923;-54
2022/10/14 06:32:25;;;;;;;;;;;;;;;;;;5128636;27;19907;-52
2022/10/14 06:34:51;;;;;;;;;;;;;;;;;;5132317;27;19919;-54
2022/10/14 06:37:17;;;;;;;;;;;;;;;;;;5134461;27;20333;-55
2022/10/14 06:39:43;;;;;;;;;;;;;;;;;;5135909;27;19908;-55
2022/10/14 06:42:09;;;;;;;;;;;;;;;;;;5129031;27;19957;-57
2022/10/14 06:44:35;;;;;;;;;;;;;;;;;;5124246;27;20025;-53
2022/10/14 06:47:01;;;;;;;;;;;;;;;;;;5134487;27;20356;-53
2022/10/14 06:49:27;;;;;;;;;;;;;;;;;;5116766;27;19920;-55
2022/10/14 06:51:53;;;;;;;;;;;;;;;;;;5127022;27;19908;-56
2022/10/14 06:54:19;;;;;;;;;;;;;;;;;;5130378;27;19986;-54
2022/10/14 06:56:45;;;;;;;;;;;;;;;;;;5114627;28;19919;-55
2022/10/14 06:59:11;;;;;;;;;;;;;;;;;;5114305;28;19933;-56
2022/10/14 07:01:37;;;;;;;;;;;;;;;;;;5120841;27;19907;-51
2022/10/14 07:04:04;;;;;;;;;;;;;;;;;;5133951;27;19908;-54
2022/10/14 07:06:30;;;;;;;;;;;;;;;;;;5134127;27;19933;-55
2022/10/14 07:08:55;;;;;;;;;;;;;;;;;;5127606;27;19919;-55
2022/10/14 07:11:21;;;;;;;;;;;;;;;;;;5124133;27;19907;-54
2022/10/14 07:13:47;;;;;;;;;;;;;;;;;;5135031;27;19907;-54
2022/10/14 07:16:13;;;;;;;;;;;;;;;;;;5133906;27;19907;-55
2022/10/14 07:18:39;;;;;;;;;;;;;;;;;;5131194;27;19932;-55
2022/10/14 07:21:05;;;;;;;;;;;;;;;;;;5125475;27;19911;-55
2022/10/14 07:23:31;;;;;;;;;;;;;;;;;;5118914;27;20576;-54
2022/10/14 07:25:57;;;;;;;;;;;;;;;;;;5134581;27;20390;-53
2022/10/14 07:28:22;;;;;;;;;;;;;;;;;;5121319;27;20086;-54
2022/10/14 07:30:49;;;;;;;;;;;;;;;;;;5134162;27;19915;-54
2022/10/14 07:33:14;;;;;;;;;;;;;;;;;;5126039;27;19911;-55
2022/10/14 07:35:40;;;;;;;;;;;;;;;;;;5133799;27;19938;-53
2022/10/14 07:38:06;;;;;;;;;;;;;;;;;;5130037;27;19908;-53
2022/10/14 07:40:32;;;;;;;;;;;;;;;;;;5121146;27;20375;-55
2022/10/14 07:42:58;;;;;;;;;;;;;;;;;;5116441;27;19912;-54
2022/10/14 07:45:24;;;;;;;;;;;;;;;;;;5112911;28;19908;-55
2022/10/14 07:47:50;;;;;;;;;;;;;;;;;;5113645;28;19957;-54
2022/10/14 07:50:16;;;;;;;;;;;;;;;;;;5112329;28;19916;-54
2022/10/14 07:52:42;;;;;;;;;;;;;;;;;;5129188;27;19914;-52
2022/10/14 07:55:08;;;;;;;;;;;;;;;;;;5123157;27;19912;-57
2022/10/14 07:57:34;;;;;;;;;;;;;;;;;;5112854;28;20379;-54
2022/10/14 07:59:59;;;;;;;;;;;;;;;;;;5113745;28;19911;-54
2022/10/14 08:02:26;;;;;;;;;;;;;;;;;;5114727;27;19911;-55
2022/10/14 08:04:54;;;;;;;;;;;;;;;;;;5115901;27;19964;-55
2022/10/14 08:07:20;;;;;;;;;;;;;;;;;;5130485;27;20480;-54
2022/10/14 08:09:46;;;;;;;;;;;;;;;;;;5134805;27;20017;-52
2022/10/14 08:12:12;;;;;;;;;;;;;;;;;;5136059;27;19924;-57
2022/10/14 08:14:38;;;;;;;;;;;;;;;;;;5134229;27;19908;-55
2022/10/14 08:17:04;;;;;;;;;;;;;;;;;;5133299;27;19923;-55
2022/10/14 08:19:30;;;;;;;;;;;;;;;;;;5128601;27;19955;-55
2022/10/14 08:21:56;;;;;;;;;;;;;;;;;;5135486;27;19938;-54
2022/10/14 08:24:21;;;;;;;;;;;;;;;;;;5125140;27;19916;-56
2022/10/14 08:26:47;;;;;;;;;;;;;;;;;;5126614;27;20385;-56
2022/10/14 08:29:13;;;;;;;;;;;;;;;;;;5124023;27;20253;-55
2022/10/14 08:31:39;;;;;;;;;;;;;;;;;;5129074;27;19914;-55
2022/10/14 08:34:05;;;;;;;;;;;;;;;;;;5123107;27;19972;-54
2022/10/14 08:36:31;;;;;;;;;;;;;;;;;;5126356;27;19903;-54
2022/10/14 08:38:57;;;;;;;;;;;;;;;;;;5132953;27;19907;-54
2022/10/14 08:41:23;;;;;;;;;;;;;;;;;;5131442;27;19912;-54
2022/10/14 08:43:49;;;;;;;;;;;;;;;;;;5124346;27;19919;-55
2022/10/14 08:46:15;;;;;;;;;;;;;;;;;;5142605;27;19912;-54
2022/10/14 08:48:41;;;;;;;;;;;;;;;;;;5133922;27;19908;-55
2022/10/14 08:51:07;;;;;;;;;;;;;;;;;;5118346;27;19907;-53
2022/10/14 08:53:32;;;;;;;;;;;;;;;;;;5120756;27;19911;-54
2022/10/14 08:55:59;;;;;;;;;;;;;;;;;;5142895;27;20381;-54
2022/10/14 08:58:27;;;;;;;;;;;;;;;;;;5135954;27;20287;-54
2022/10/14 09:00:53;;;;;;;;;;;;;;;;;;5128543;27;19908;-55
2022/10/14 09:03:19;;;;;;;;;;;;;;;;;;5121097;27;20244;-54
2022/10/14 09:05:45;;;;;;;;;;;;;;;;;;5115664;28;19959;-55
2022/10/14 09:08:10;;;;;;;;;;;;;;;;;;5121809;28;20431;-57
2022/10/14 09:10:36;;;;;;;;;;;;;;;;;;5130201;27;19924;-54
2022/10/14 09:13:02;;;;;;;;;;;;;;;;;;5112409;28;20376;-54
2022/10/14 09:15:28;;;;;;;;;;;;;;;;;;5111133;28;20650;-55
2022/10/14 09:17:54;;;;;;;;;;;;;;;;;;5112447;28;19912;-55
2022/10/14 09:20:20;;;;;;;;;;;;;;;;;;5124602;27;19912;-52
2022/10/14 09:22:46;;;;;;;;;;;;;;;;;;5123063;28;19994;-53
2022/10/14 09:25:12;;;;;;;;;;;;;;;;;;5131549;28;19912;-57
2022/10/14 09:27:37;;;;;;;;;;;;;;;;;;5138964;27;20386;-53
2022/10/14 09:30:08;;;;;;;;;;;;;;;;;;5121940;27;19922;-55
2022/10/14 09:32:33;;;;;;;;;;;;;;;;;;5111391;28;19915;-55
2022/10/14 09:34:59;;;;;;;;;;;;;;;;;;5121071;28;19921;-54
2022/10/14 09:37:25;;;;;;;;;;;;;;;;;;5131478;28;19950;-52
2022/10/14 09:39:51;;;;;;;;;;;;;;;;;;5128972;28;20245;-51
2022/10/14 09:42:17;;;;;;;;;;;;;;;;;;5123153;28;20363;-55
2022/10/14 09:44:43;;;;;;;;;;;;;;;;;;5122416;28;19934;-55
2022/10/14 09:47:09;;;;;;;;;;;;;;;;;;5124862;27;19915;-57
2022/10/14 09:49:34;;;;;;;;;;;;;;;;;;5119470;27;20249;-55
2022/10/14 09:52:01;;;;;;;;;;;;;;;;;;5131445;28;19911;-55
2022/10/14 09:54:27;;;;;;;;;;;;;;;;;;5111652;28;19919;-53
2022/10/14 09:56:53;;;;;;;;;;;;;;;;;;5131901;28;19914;-54
2022/10/14 09:59:19;;;;;;;;;;;;;;;;;;5117980;28;19916;-55
2022/10/14 10:01:45;;;;;;;;;;;;;;;;;;5130996;27;19920;-53
2022/10/14 10:04:11;;;;;;;;;;;;;;;;;;5124837;27;19962;-55
2022/10/14 10:06:36;;;;;;;;;;;;;;;;;;5135807;27;19914;-52
2022/10/14 10:09:02;;;;;;;;;;;;;;;;;;5128093;27;19961;-54
2022/10/14 10:11:28;;;;;;;;;;;;;;;;;;5124637;27;19916;-54
2022/10/14 10:13:54;;;;;;;;;;;;;;;;;;5115708;28;20424;-53
2022/10/14 10:16:20;;;;;;;;;;;;;;;;;;5114296;28;19912;-55
2022/10/14 10:18:46;;;;;;;;;;;;;;;;;;5115625;28;19908;-55
2022/10/14 10:21:12;;;;;;;;;;;;;;;;;;5114454;28;19915;-56
2022/10/14 10:23:37;;;;;;;;;;;;;;;;;;5129962;27;20033;-56
2022/10/14 10:26:03;;;;;;;;;;;;;;;;;;5125285;27;19918;-55
2022/10/14 10:28:33;;;;;;;;;;;;;;;;;;5135022;27;20103;-54
2022/10/14 10:30:59;;;;;;;;;;;;;;;;;;5134770;27;19915;-56
2022/10/14 10:33:25;;;;;;;;;;;;;;;;;;5131920;27;19915;-52
2022/10/14 10:35:51;;;;;;;;;;;;;;;;;;5123388;27;19908;-51
2022/10/14 10:38:19;;;;;;;;;;;;;;;;;;5114008;28;19908;-55
2022/10/14 10:40:46;;;;;;;;;;;;;;;;;;5125092;27;19934;-46
2022/10/14 10:43:12;;;;;;;;;;;;;;;;;;5135668;27;19908;-44
2022/10/14 10:45:38;;;;;;;;;;;;;;;;;;5125745;27;19915;-48
2022/10/14 10:48:05;;;;;;;;;;;;;;;;;;5130383;27;20368;-49
2022/10/14 10:50:31;;;;;;;;;;;;;;;;;;5114477;27;19920;-46
2022/10/14 10:52:58;;;;;;;;;;;;;;;;;;5136138;27;20000;-45
2022/10/14 10:55:24;;;;;;;;;;;;;;;;;;5134497;27;19907;-45
2022/10/14 10:57:51;;;;;;;;;;;;;;;;;;5132075;27;19920;-45
2022/10/14 11:00:19;;;;;;;;;;;;;;;;;;5124770;27;19912;-45
2022/10/14 11:02:46;;;;;;;;;;;;;;;;;;5127059;27;19912;-47
2022/10/14 11:05:12;;;;;;;;;;;;;;;;;;5095361;28;19998;-45
2022/10/14 11:13:07;;;;;;;;;;;;;;;;;;5134774;27;19978;-46
2022/10/14 11:15:33;;;;;;;;;;;;;;;;;;5133762;27;19920;-47
2022/10/14 11:18:00;;;;;;;;;;;;;;;;;;5125919;27;19935;-45
2022/10/14 11:20:25;;;;;;;;;;;;;;;;;;5130363;27;20360;-45
2022/10/14 11:22:51;;;;;;;;;;;;;;;;;;5125371;27;20012;-49
2022/10/14 11:25:17;;;;;;;;;;;;;;;;;;5116574;27;20264;-46
2022/10/14 11:27:43;;;;;;;;;;;;;;;;;;5115702;27;19907;-45
2022/10/14 11:30:09;;;;;;;;;;;;;;;;;;5116086;27;19959;-46
2022/10/14 11:32:36;;;;;;;;;;;;;;;;;;5112812;28;19922;-49
2022/10/14 11:35:04;;;;;;;;;;;;;;;;;;5129153;27;19915;-45
2022/10/14 11:37:30;;;;;;;;;;;;;;;;;;5132045;27;19971;-47
2022/10/14 11:39:56;;;;;;;;;;;;;;;;;;5120808;27;19998;-46
2022/10/14 11:42:23;;;;;;;;;;;;;;;;;;5129607;27;19915;-45
2022/10/14 11:44:49;;;;;;;;;;;;;;;;;;5128948;27;19911;-46
2022/10/14 11:47:14;;;;;;;;;;;;;;;;;;5132943;27;20284;-45
2022/10/14 11:49:40;;;;;;;;;;;;;;;;;;5134278;27;19923;-47
2022/10/14 11:52:06;;;;;;;;;;;;;;;;;;5116960;27;19939;-46
2022/10/14 11:54:32;;;;;;;;;;;;;;;;;;5111991;27;19930;-47
2022/10/14 11:56:58;;;;;;;;;;;;;;;;;;5124498;27;19919;-45
2022/10/14 11:59:24;;;;;;;;;;;;;;;;;;5133600;27;19911;-47
2022/10/14 12:01:51;;;;;;;;;;;;;;;;;;5133112;27;19963;-46
2022/10/14 12:04:16;;;;;;;;;;;;;;;;;;5132684;27;19964;-48
2022/10/14 12:06:42;;;;;;;;;;;;;;;;;;5132786;27;19915;-47
2022/10/14 12:09:12;;;;;;;;;;;;;;;;;;5131772;27;20299;-46
2022/10/14 12:11:38;;;;;;;;;;;;;;;;;;5130290;27;19915;-46
2022/10/14 12:14:04;;;;;;;;;;;;;;;;;;5131357;27;20280;-49
2022/10/14 12:16:30;;;;;;;;;;;;;;;;;;5130394;27;19908;-47
2022/10/14 12:18:55;;;;;;;;;;;;;;;;;;5130896;27;19934;-45
2022/10/14 12:21:21;;;;;;;;;;;;;;;;;;5127922;27;19907;-45
2022/10/14 12:23:47;;;;;;;;;;;;;;;;;;5131654;27;19916;-45
2022/10/14 12:26:13;;;;;;;;;;;;;;;;;;5127067;27;19908;-48
2022/10/14 12:28:39;;;;;;;;;;;;;;;;;;5132673;27;19927;-48
2022/10/14 12:31:05;;;;;;;;;;;;;;;;;;5129512;27;19916;-48
2022/10/14 12:33:31;;;;;;;;;;;;;;;;;;5132469;27;20034;-45
2022/10/14 12:36:00;;;;;;;;;;;;;;;;;;5132509;27;19907;-49
2022/10/14 12:38:26;;;;;;;;;;;;;;;;;;5127088;27;19980;-47
2022/10/14 12:40:52;;;;;;;;;;;;;;;;;;5129686;27;19907;-45
2022/10/14 12:43:18;;;;;;;;;;;;;;;;;;5132227;27;20368;-45
2022/10/14 12:45:44;;;;;;;;;;;;;;;;;;5126588;27;19915;-45
2022/10/14 12:48:10;;;;;;;;;;;;;;;;;;5132573;27;20279;-46
2022/10/14 12:50:36;;;;;;;;;;;;;;;;;;5131788;27;19963;-45
2022/10/14 12:53:02;;;;;;;;;;;;;;;;;;5122362;27;19914;-46
2022/10/14 12:55:28;;;;;;;;;;;;;;;;;;5131643;27;19918;-46
2022/10/14 12:57:54;;;;;;;;;;;;;;;;;;5132693;27;19911;-50
2022/10/14 13:00:19;;;;;;;;;;;;;;;;;;5124657;27;19911;-46
2022/10/14 13:02:45;;;;;;;;;;;;;;;;;;5132513;27;19907;-45
2022/10/14 13:05:11;;;;;;;;;;;;;;;;;;5131268;27;19926;-45
2022/10/14 13:07:37;;;;;;;;;;;;;;;;;;5132667;28;19907;-46
2022/10/14 13:10:03;;;;;;;;;;;;;;;;;;5132306;28;19924;-46
2022/10/14 13:12:30;;;;;;;;;;;;;;;;;;5131614;28;19921;-46
2022/10/14 13:14:57;;;;;;;;;;;;;;;;;;5131414;27;20360;-45
2022/10/14 13:17:23;;;;;;;;;;;;;;;;;;5130934;28;19994;-46
2022/10/14 13:19:48;;;;;;;;;;;;;;;;;;5132488;28;19998;-50
2022/10/14 13:22:14;;;;;;;;;;;;;;;;;;5123394;28;19907;-46
2022/10/14 13:24:40;;;;;;;;;;;;;;;;;;5132630;28;19908;-45
2022/10/14 13:27:06;;;;;;;;;;;;;;;;;;5125257;28;19915;-50
2022/10/14 13:29:32;;;;;;;;;;;;;;;;;;5132983;27;20018;-46
2022/10/14 13:31:58;;;;;;;;;;;;;;;;;;5121769;27;19919;-45
2022/10/14 13:34:24;;;;;;;;;;;;;;;;;;5132408;27;20045;-50
2022/10/14 13:36:50;;;;;;;;;;;;;;;;;;5129413;27;19960;-50
2022/10/14 13:39:15;;;;;;;;;;;;;;;;;;5130922;27;20264;-46
2022/10/14 13:41:42;;;;;;;;;;;;;;;;;;5136084;27;19915;-46
2022/10/14 13:44:08;;;;;;;;;;;;;;;;;;5136398;27;19907;-46
2022/10/14 13:46:34;;;;;;;;;;;;;;;;;;5136435;27;19952;-47
2022/10/14 13:49:00;;;;;;;;;;;;;;;;;;5132981;27;19911;-47
2022/10/14 13:51:26;;;;;;;;;;;;;;;;;;5122016;27;19930;-46
2022/10/14 13:53:52;;;;;;;;;;;;;;;;;;5135842;27;19960;-47
2022/10/14 13:56:18;;;;;;;;;;;;;;;;;;5134981;27;19908;-48
2022/10/14 13:58:44;;;;;;;;;;;;;;;;;;5136213;27;19912;-45
2022/10/14 14:01:10;;;;;;;;;;;;;;;;;;5135229;27;19998;-47
2022/10/14 14:03:35;;;;;;;;;;;;;;;;;;5123013;27;20387;-46
2022/10/14 14:06:01;;;;;;;;;;;;;;;;;;5135765;27;19928;-47
2022/10/14 14:08:27;;;;;;;;;;;;;;;;;;5133937;27;20352;-48
2022/10/14 14:10:53;;;;;;;;;;;;;;;;;;5134832;27;19922;-48
2022/10/14 14:13:19;;;;;;;;;;;;;;;;;;5135655;27;19943;-49
2022/10/14 14:15:45;;;;;;;;;;;;;;;;;;5122075;27;19914;-47
2022/10/14 14:18:11;;;;;;;;;;;;;;;;;;5141379;27;19919;-46
2022/10/14 14:20:37;;;;;;;;;;;;;;;;;;5140057;27;19919;-46
2022/10/14 14:23:03;;;;;;;;;;;;;;;;;;5126567;27;19915;-46
2022/10/14 14:25:29;;;;;;;;;;;;;;;;;;5134198;27;20006;-45
2022/10/14 14:27:55;;;;;;;;;;;;;;;;;;5135284;27;19912;-47
2022/10/14 14:30:21;;;;;;;;;;;;;;;;;;5122967;27;19920;-47
2022/10/14 14:32:47;;;;;;;;;;;;;;;;;;5129099;27;19908;-46
2022/10/14 14:35:13;;;;;;;;;;;;;;;;;;5134050;27;19914;-47
2022/10/14 14:37:38;;;;;;;;;;;;;;;;;;5134897;27;19908;-48
2022/10/14 14:40:04;;;;;;;;;;;;;;;;;;5131550;27;19958;-46
2022/10/14 14:42:30;;;;;;;;;;;;;;;;;;5115538;27;19904;-46
2022/10/14 14:44:56;;;;;;;;;;;;;;;;;;5132751;27;19918;-46
2022/10/14 14:47:22;;;;;;;;;;;;;;;;;;5134073;27;19911;-45
2022/10/14 14:49:48;;;;;;;;;;;;;;;;;;5107945;27;20380;-47
2022/10/14 14:52:14;;;;;;;;;;;;;;;;;;5128252;27;19907;-47
2022/10/14 14:54:39;;;;;;;;;;;;;;;;;;5135041;27;19957;-45
2022/10/14 14:57:05;;;;;;;;;;;;;;;;;;5132748;27;19918;-48
2022/10/14 14:59:31;;;;;;;;;;;;;;;;;;5133748;27;19963;-48
2022/10/14 15:01:57;;;;;;;;;;;;;;;;;;5134229;27;19908;-46
2022/10/14 15:04:24;;;;;;;;;;;;;;;;;;5134050;27;19919;-46
2022/10/14 15:06:49;;;;;;;;;;;;;;;;;;5133936;27;19953;-46
2022/10/14 15:09:15;;;;;;;;;;;;;;;;;;5133756;27;19958;-45
2022/10/14 15:11:41;;;;;;;;;;;;;;;;;;5132214;27;20309;-47
2022/10/14 15:14:07;;;;;;;;;;;;;;;;;;5134813;27;19911;-45
2022/10/14 15:16:33;;;;;;;;;;;;;;;;;;5133916;27;19912;-46
2022/10/14 15:18:59;;;;;;;;;;;;;;;;;;5133916;27;19940;-46
2022/10/14 15:21:25;;;;;;;;;;;;;;;;;;5136800;27;19966;-46
2022/10/14 15:23:52;;;;;;;;;;;;;;;;;;5132976;27;20297;-45
2022/10/14 15:26:20;;;;;;;;;;;;;;;;;;5132664;27;19912;-46
2022/10/14 15:28:46;;;;;;;;;;;;;;;;;;5132790;27;19911;-48
2022/10/14 15:31:12;;;;;;;;;;;;;;;;;;5131747;27;19916;-48
2022/10/14 15:33:38;;;;;;;;;;;;;;;;;;5140933;27;19994;-45
2022/10/14 15:36:04;;;;;;;;;;;;;;;;;;5133677;27;20731;-46
2022/10/14 15:38:29;;;;;;;;;;;;;;;;;;5119615;27;19977;-47
2022/10/14 15:40:55;;;;;;;;;;;;;;;;;;5127728;27;19915;-45
2022/10/14 15:43:21;;;;;;;;;;;;;;;;;;5131600;27;20305;-45
2022/10/14 15:47:17;;;;;;;;;;;;;;;;;;5133328;27;20340;-47
2022/10/14 15:48:33;;;;;;;;;;;;;;;;;;5128161;27;19947;-47
2022/10/14 15:50:59;;;;;;;;;;;;;;;;;;5133016;27;19965;-46
2022/10/14 15:53:25;;;;;;;;;;;;;;;;;;5133155;27;19907;-45
2022/10/14 15:55:51;;;;;;;;;;;;;;;;;;5114460;27;20360;-46
2022/10/14 15:58:16;;;;;;;;;;;;;;;;;;5128156;27;19958;-45
2022/10/14 16:00:44;;;;;;;;;;;;;;;;;;5128379;27;19915;-48
2022/10/14 16:03:10;;;;;;;;;;;;;;;;;;5130898;27;20372;-46
2022/10/14 16:05:38;;;;;;;;;;;;;;;;;;5132313;27;19920;-47
2022/10/14 16:08:04;;;;;;;;;;;;;;;;;;5132645;27;20375;-46
2022/10/14 16:10:30;;;;;;;;;;;;;;;;;;5138005;27;20005;-46
2022/10/14 16:12:56;;;;;;;;;;;;;;;;;;5135735;27;20026;-45
2022/10/14 16:15:23;;;;;;;;;;;;;;;;;;5130515;27;19998;-45
2022/10/14 16:17:49;;;;;;;;;;;;;;;;;;5126537;27;20379;-45
2022/10/14 16:20:15;;;;;;;;;;;;;;;;;;5133848;27;19935;-46
2022/10/14 16:22:40;;;;;;;;;;;;;;;;;;5135326;27;19970;-44
2022/10/14 16:25:06;;;;;;;;;;;;;;;;;;5131615;27;19914;-44
2022/10/14 16:27:32;;;;;;;;;;;;;;;;;;5130840;27;19919;-45
2022/10/14 16:29:58;;;;;;;;;;;;;;;;;;5133183;27;19945;-44
2022/10/14 16:32:24;;;;;;;;;;;;;;;;;;5129362;27;19912;-49
2022/10/14 16:34:50;;;;;;;;;;;;;;;;;;5120854;27;19920;-45
2022/10/14 16:37:16;;;;;;;;;;;;;;;;;;5122891;27;20009;-45
2022/10/14 16:39:41;;;;;;;;;;;;;;;;;;5130558;27;19923;-46
2022/10/14 16:42:08;;;;;;;;;;;;;;;;;;5118695;27;19911;-45